San Antonio, Valles Caldera, New Mexico Weather observations

Data are for 10 minute period ending at time listed.
 Day   Time   Solar   Ave.   Ave.  Ave.  Vector  Max.   Baro.   Total    
  of    of     Rad.   Air    Rel.  Wind   Wind   Wind  Press.  Precip.   
Year   Day            Temp.  Hum.  Speed  Dir.   Gust                    
2016   (MST)  Kw/m2    F      %     mph   deg.    mph    mb.     in.     
-------------------------------------------------------------------------
 144    8:30   0.65   55.0    29    9.3   254    18.5   99999.0    0.00 
 144    8:40   0.69   55.3    28   10.8   246    19.7   99999.0    0.00 
 144    8:50   0.72   55.6    29    9.4   248    18.5   99999.0    0.00 
 144    9:00   0.73   55.9    28    9.4   246    15.5   99999.0    0.00 
 144    9:10   0.77   56.3    28   10.0   261    18.5   99999.0    0.00 
 144    9:20   0.79   56.3    28   11.2   239    18.5   99999.0    0.00 
 144    9:30   0.81   56.8    28    9.8   252    20.9   99999.0    0.00 
 144    9:40   0.84   57.4    27   10.7   233    18.5   99999.0    0.00 
 144    9:50   0.86   57.3    27   10.8   241    19.7   99999.0    0.00 
 144   10:00   0.88   57.4    27   10.8   261    18.5   99999.0    0.00 
 144   10:10   0.89   58.2    26   10.9   275    18.5   99999.0    0.00 
 144   10:20   0.91   57.7    27   11.1   257    23.3   99999.0    0.00 
 144   10:30   0.92   58.0    27   10.3   267    23.9   99999.0    0.00 
 144   10:40   0.94   58.5    26   10.2   240    17.9   99999.0    0.00 
 144   10:50   0.95   58.7    27    9.1   232    18.5   99999.0    0.00 
 144   11:00   0.96   59.3    26    9.7   254    19.1   99999.0    0.00 
 144   11:10   0.97   60.0    26   11.0   229    16.1   99999.0    0.00 
 144   11:20   0.97   59.9    26   10.6   253    19.1   99999.0    0.00 
 144   11:30   0.98   59.8    25   13.3   277    22.7   99999.0    0.00 
 144   11:40   0.98   59.9    25   11.9   259    19.7   99999.0    0.00 
 144   11:50   0.99   59.9    26   11.9   261    23.3   99999.0    0.00 
 144   12:00   0.99   60.3    24   10.4   278    23.3   99999.0    0.00 
 144   12:10   0.98   61.4    24   12.1   262    21.5   99999.0    0.00 
 144   12:20   0.99   61.6    24   13.7   265    22.1   99999.0    0.00 
 144   12:30   0.94   61.4    24   11.4   262    20.3   99999.0    0.00 
 144   12:40   0.79   61.5    25   10.8   203    19.1   99999.0    0.00 
 144   12:50   0.95   61.8    24    9.4   271    17.9   99999.0    0.00 
 144   13:00   0.98   63.0    22   12.8   266    24.5   99999.0    0.00 
 144   13:10   1.05   63.5    23    9.1   257    16.7   99999.0    0.00 
 144   13:20   0.82   63.7    23   11.9   248    19.7   99999.0    0.00 
 144   13:30   1.05   63.4    22   11.4   232    23.9   99999.0    0.00 
 144   13:40   1.00   64.5    22   12.5   247    25.0   99999.0    0.00 
 144   13:50   1.01   65.3    21   13.2   271    21.5   99999.0    0.00 
 144   14:00   1.05   65.5    21   11.1   258    19.1   99999.0    0.00 
 144   14:10   0.56   63.7    22   12.0   261    21.5   99999.0    0.00 
 144   14:20   0.92   63.9    22   12.4   229    20.9   99999.0    0.00 
 144   14:30   0.44   63.9    21   11.9   256    19.1   99999.0    0.00 
 144   14:40   0.48   62.0    23   10.2   255    16.7   99999.0    0.00 
 144   14:50   0.89   64.4    23   10.8   205    16.7   99999.0    0.00 
 144   15:00   0.97   66.2    21   11.4   241    19.7   99999.0    0.00 
 144   15:10   0.43   64.9    21   11.4   247    21.5   99999.0    0.00 
 144   15:20   0.54   63.0    22    9.0   254    16.7   99999.0    0.00 
 144   15:30   0.35   62.9    22    6.9   266    13.1   99999.0    0.00 
 144   15:40   0.50   65.1    20    9.4   273    16.7   99999.0    0.00 
 144   15:50   0.24   62.8    22    6.6   254    11.3   99999.0    0.00 
 144   16:00   0.19   62.0    23    5.4   249    11.9   99999.0    0.00 
 144   16:10   0.36   62.1    22    6.8   237    11.3   99999.0    0.00 
 144   16:20   0.34   64.1    20    9.1   255    17.3   99999.0    0.00 
 144   16:30   0.26   63.5    20    7.6   234    13.1   99999.0    0.00 
 144   16:40   0.44   64.0    20    7.5   227    13.1   99999.0    0.00 
 144   16:50   0.54   65.5    18   12.4   253    19.7   99999.0    0.00 
 144   17:00   0.47   66.3    17   13.7   268    21.5   99999.0    0.00 
 144   17:10   0.43   65.8    17   10.6   263    17.3   99999.0    0.00 
 144   17:20   0.40   65.6    17   10.3   270    15.5   99999.0    0.00 
 144   17:30   0.36   65.3    17   10.0   265    16.7   99999.0    0.00 
 144   17:40   0.30   65.2    17   12.0   274    19.7   99999.0    0.00 
 144   17:50   0.25   63.8    18   10.8   255    16.7   99999.0    0.00 
 144   18:00   0.22   63.5    18    9.4   268    16.1   99999.0    0.00 
 144   18:10   0.18   63.1    18   10.3   280    15.5   99999.0    0.00 
 144   18:20   0.15   62.3    18   10.2   287    15.5   99999.0    0.00 
 144   18:30   0.10   61.5    19    7.4   295    13.7   99999.0    0.00 
 144   18:40   0.03   59.8    20    5.1   314     9.6   99999.0    0.00 
 144   18:50   0.05   58.9    21    4.4   332    10.8   99999.0    0.00 
 144   19:00   0.01   58.0    22    3.9     1     6.0   99999.0    0.00 
 144   19:10   0.01   56.0    25    4.3    20     6.0   99999.0    0.00 
 144   19:20   0.00   54.3    27    3.6    24     5.4   99999.0    0.00 
 144   19:30   0.00   53.3    28    2.8    25     5.4   99999.0    0.00 
 144   19:40   0.00   52.1    29    2.7    43     4.2   99999.0    0.00 
 144   19:50   0.00   51.5    29    3.1    34     4.2   99999.0    0.00 
 144   20:00   0.00   50.4    30    4.0    36     5.4   99999.0    0.00 
 144   20:10   0.00   49.9    30    2.6    28     4.2   99999.0    0.00 
 144   20:20   0.00   48.4    33    1.7    14     3.0   99999.0    0.00 
 144   20:30   0.00   47.1    34    0.7    35     1.8   99999.0    0.00 
 144   20:40   0.00   46.5    35    1.3    29     2.4   99999.0    0.00 
 144   20:50   0.00   45.7    37    1.5    17     3.0   99999.0    0.00 
 144   21:00   0.00   44.7    39    2.6    27     4.8   99999.0    0.00 
 144   21:10   0.00   43.0    42    2.0   357     4.8   99999.0    0.00 
 144   21:20   0.00   42.4    43    1.6   348     4.2   99999.0    0.00 
 144   21:30   0.00   42.0    44    2.4    22     4.8   99999.0    0.00 
 144   21:40   0.00   41.0    46    2.7    19     5.4   99999.0    0.00 
 144   21:50   0.00   41.2    45    2.1    86     6.6   99999.0    0.00 
 144   22:00   0.00   39.1    51    3.4    18    10.2   99999.0    0.00 
 144   22:10   0.00   37.7    54    2.9    49     6.0   99999.0    0.00 
 144   22:20   0.00   38.0    52    2.6   320     6.0   99999.0    0.00 
 144   22:30   0.00   37.4    54    2.6    15     4.8   99999.0    0.00 
 144   22:40   0.00   37.6    52    2.7    39     7.8   99999.0    0.00 
 144   22:50   0.00   36.7    55    3.7     2    11.9   99999.0    0.00 
 144   23:00   0.00   35.4    59    2.4   138     9.6   99999.0    0.00 
 144   23:10   0.00   35.6    58    2.9    54    11.3   99999.0    0.00 
 144   23:20   0.00   35.0    60    2.9    14     9.0   99999.0    0.00 
 144   23:30   0.00   33.8    62    2.4    31     7.2   99999.0    0.00 
 144   23:40   0.00   33.9    61    2.5   338     5.4   99999.0    0.00 
 144   23:50   0.00   34.0    60    2.7   354     7.2   99999.0    0.00 
 145    0:00   0.00   32.7    63    2.6   353     6.6   99999.0    0.00 
 145    0:10   0.00   31.9    66    2.4   168     5.4   99999.0    0.00 
 145    0:20   0.00   31.2    68    3.3    33     8.4   99999.0    0.00 
 145    0:30   0.00   31.5    66    2.6   359     4.8   99999.0    0.00 
 145    0:40   0.00   31.5    66    2.9     6     4.8   99999.0    0.00 
 145    0:50   0.00   31.4    66    3.1   355     7.8   99999.0    0.00 
 145    1:00   0.00   30.4    68    1.9    82     4.8   99999.0    0.00 
 145    1:10   0.00   30.3    68    2.2   358     4.2   99999.0    0.00 
 145    1:20   0.00   30.9    66    2.0    94     3.6   99999.0    0.00 
 145    1:30   0.00   29.1    71    2.5    12     5.4   99999.0    0.00 
 145    1:40   0.00   28.9    71    1.7   355     4.8   99999.0    0.00 
 145    1:50   0.00   29.3    70    2.5   332     7.8   99999.0    0.00 
 145    2:00   0.00   29.0    70    2.0   351     5.4   99999.0    0.00 
 145    2:10   0.00   28.9    71    1.1   226     3.6   99999.0    0.00 
 145    2:20   0.00   27.2    74    4.2    13    10.2   99999.0    0.00 
 145    2:30   0.00   27.4    74    2.7   344     4.8   99999.0    0.00 
 145    2:40   0.00   27.1    74    1.6   312     5.4   99999.0    0.00 
 145    2:50   0.00   27.1    74    1.4   316     3.0   99999.0    0.00 
 145    3:00   0.00   27.5    73    1.0    17     3.0   99999.0    0.00 
 145    3:10   0.00   26.2    76    1.9   122     4.2   99999.0    0.00 
 145    3:20   0.00   26.4    76    1.3    83     4.2   99999.0    0.00 
 145    3:30   0.00   27.4    72    1.6     1     4.2   99999.0    0.00 
 145    3:40   0.00   26.9    73    1.4   152     3.0   99999.0    0.00 
 145    3:50   0.00   25.6    78    1.9    27     3.0   99999.0    0.00 
 145    4:00   0.00   25.9    77    1.3    33     3.0   99999.0    0.00 
 145    4:10   0.00   26.0    75    1.3   126     2.4   99999.0    0.00 
 145    4:20   0.00   25.0    78    0.1    98     1.8   99999.0    0.00 
 145    4:30   0.00   25.2    78    1.2    86     3.6   99999.0    0.00 
 145    4:40   0.00   25.2    77    1.4    30     3.6   99999.0    0.00 
 145    4:50   0.00   25.4    76    0.7   353     2.4   99999.0    0.00 
 145    5:00   0.00   25.3    77    1.3   132     2.4   99999.0    0.00 
 145    5:10   0.01   25.0    78    0.7   347     2.4   99999.0    0.00 
 145    5:20   0.01   24.9    78    1.0   354     2.4   99999.0    0.00 
 145    5:30   0.01   25.4    76    0.9   119     3.0   99999.0    0.00 
 145    5:40   0.01   25.1    77    1.2   324     3.0   99999.0    0.00 
 145    5:50   0.02   24.6    78    0.6   164     3.0   99999.0    0.00 
 145    6:00   0.02   25.0    78    0.4   118     2.4   99999.0    0.00 
 145    6:10   0.02   24.9    78    0.9    98     3.6   99999.0    0.00 
 145    6:20   0.02   25.3    78    1.0    73     2.4   99999.0    0.00 
 145    6:30   0.08   27.4    74    1.7    54     3.0   99999.0    0.00 
 145    6:40   0.29   31.4    67    1.3    54     3.0   99999.0    0.00 
 145    6:50   0.32   38.2    54    0.9    85     3.0   99999.0    0.00 
 145    7:00   0.36   41.3    49    0.7    80     2.4   99999.0    0.00 
 145    7:10   0.39   45.3    44    2.0   276     4.2   99999.0    0.00 
 145    7:20   0.43   46.2    41    2.8   258     4.2   99999.0    0.00 
 145    7:30   0.47   47.5    43    1.3    74     3.0   99999.0    0.00 
 145    7:40   0.50   50.0    40    1.4    95     3.6   99999.0    0.00 
 145    7:50   0.53   54.9    33    0.8   298     3.6   99999.0    0.00 
 145    8:00   0.56   58.9    26    2.0   306     3.6   99999.0    0.00 
 145    8:10   0.60   60.1    25    3.1   280     7.2   99999.0    0.00 
 145    8:20   0.63   58.8    25    4.4   243    13.1   99999.0    0.00 

Return to San Antonio, Valles Caldera graphs page.


Western Regional Climate Center,wrcc@dri.edu